»·PEaware :: N9635H KVNY-KSNA

N9635H :: KVNY-KSNA

FLIGHT INFORMATION

Flight Status: Arrived
Operator: Privately registered:
United States
More flights under this callsign
Pilot: Rob McDonald (16242)
Aircraft: CESSNA 172 SKYHAWK
(C172)
More flights by this aircraft type
Origin: KVNY Van Nuys
United States
Destination: KSNA John Wayne-Orange Co
United States
More flights between these airports :: More routes between these airports
Route: +
File this flight plan on PilotEdge
Remarks: CAT10
Altitude:
(Current/Filed)
2,500ft
Speed:
(Current/Filed)
0kts
Departed: 09-Aug-17 07:51 PM
Arrived: 09-Aug-17 08:28 PM
Distance/Time
Traveled:
45nm/0:37
Distance/Time
To Go:
Arrived

Flight Plot

Page will automatically refresh every two minutes.


Map Options




Map Legend


Flown Route
Filed Route
Departure Airport
Arrival Airport
Navaid (VOR, NDB)
Fix

Horizontal Profiles

Position Reports

Time Latitude Longitude Heading Altitude Ground
Speed
09-Aug-17 19:51 34.199559 -118.490781 111 754ft 0kts
09-Aug-17 19:52 34.199559 -118.490781 111 754ft 0kts
09-Aug-17 19:53 34.199559 -118.490781 111 754ft 0kts
09-Aug-17 19:54 34.203603 -118.490929 353 763ft 41kts
09-Aug-17 19:55 34.215308 -118.492122 354 793ft 51kts
09-Aug-17 19:56 34.218747 -118.491991 67 799ft 0kts
09-Aug-17 19:57 34.218747 -118.491991 67 799ft 0kts
09-Aug-17 19:58 34.214240 -118.490779 176 801ft 88kts
09-Aug-17 19:59 34.191049 -118.499654 206 1884ft 90kts
09-Aug-17 20:00 34.165879 -118.501263 148 2678ft 105kts
09-Aug-17 20:01 34.156807 -118.480638 104 4045ft 65kts
09-Aug-17 20:02 34.159777 -118.484868 44 4915ft 76kts
09-Aug-17 20:03 34.153503 -118.465755 128 5546ft 67kts
09-Aug-17 20:04 34.150627 -118.475851 303 5647ft 98kts
09-Aug-17 20:05 34.165425 -118.486215 111 5692ft 101kts
09-Aug-17 20:06 34.144350 -118.478634 357 5586ft 94kts
09-Aug-17 20:07 34.170341 -118.479870 358 5714ft 92kts
09-Aug-17 20:08 34.145720 -118.478422 171 5743ft 123kts
09-Aug-17 20:09 34.111905 -118.471558 170 5848ft 129kts
09-Aug-17 20:10 34.076351 -118.461667 165 5796ft 127kts
09-Aug-17 20:11 34.040940 -118.453972 168 5759ft 131kts
09-Aug-17 20:12 34.005859 -118.447170 176 5780ft 130kts
09-Aug-17 20:13 33.969966 -118.438312 166 5694ft 128kts
09-Aug-17 20:14 33.935320 -118.436096 135 5764ft 126kts
09-Aug-17 20:15 33.907824 -118.408718 140 5739ft 130kts
09-Aug-17 20:16 33.879804 -118.383283 142 5739ft 130kts
09-Aug-17 20:17 33.851946 -118.356795 140 5739ft 130kts
09-Aug-17 20:18 33.824765 -118.329389 139 5665ft 131kts
09-Aug-17 20:19 33.797119 -118.301466 140 5666ft 130kts
09-Aug-17 20:20 33.776561 -118.267313 115 5666ft 129kts
09-Aug-17 20:21 33.760854 -118.228772 116 5666ft 130kts
09-Aug-17 20:22 33.744942 -118.189786 116 5666ft 130kts
09-Aug-17 20:23 33.728997 -118.150720 116 5666ft 130kts
09-Aug-17 20:24 33.713130 -118.111853 116 5666ft 130kts
09-Aug-17 20:25 33.697269 -118.072967 119 5666ft 130kts
09-Aug-17 20:26 33.682814 -118.037878 118 5664ft 112kts
09-Aug-17 20:27 33.677057 -117.993285 92 4181ft 160kts
09-Aug-17 20:28 33.674549 -117.942133 93 3005ft 142kts
09-Aug-17 20:29 33.678178 -117.893441 81 1090ft 149kts
09-Aug-17 20:30 33.694541 -117.865688 114 631ft 93kts
09-Aug-17 20:31 33.674897 -117.869349 207 60ft 38kts
09-Aug-17 20:32 33.672472 -117.873025 218 60ft 4kts
09-Aug-17 20:33 33.672330 -117.873122 200 60ft 0kts
09-Aug-17 20:34 33.672330 -117.873122 200 60ft 0kts
09-Aug-17 20:35 33.672330 -117.873122 200 60ft 0kts
09-Aug-17 20:36 33.672330 -117.873122 200 60ft 0kts
09-Aug-17 20:37 33.672330 -117.873122 200 60ft 0kts
09-Aug-17 20:38 33.672330 -117.873122 200 60ft 0kts
09-Aug-17 20:39 33.672330 -117.873122 200 60ft 0kts
09-Aug-17 20:40 33.672330 -117.873122 200 60ft 0kts
09-Aug-17 20:41 33.672330 -117.873122 200 60ft 0kts
09-Aug-17 20:42 33.672330 -117.873122 200 60ft 0kts
09-Aug-17 20:43 33.672330 -117.873122 200 60ft 0kts
09-Aug-17 20:44 33.672330 -117.873122 200 60ft 0kts
09-Aug-17 20:45 33.672330 -117.873122 200 60ft 0kts

Navigation Log

Ident Type
1. KVNY Airport
2. KSNA Airport